createdAt,value
2018-04-10T00:01:01.412Z,985.73
2018-04-10T00:02:06.765Z,985.76
2018-04-10T00:03:11.031Z,985.76
2018-04-10T00:04:15.392Z,985.79
2018-04-10T00:05:20.664Z,985.79
2018-04-10T00:06:27.018Z,985.73
2018-04-10T00:07:31.280Z,985.75
2018-04-10T00:08:35.542Z,985.72
2018-04-10T00:09:40.708Z,985.73
2018-04-10T00:10:45.976Z,985.9
2018-04-10T00:11:51.232Z,985.84
2018-04-10T00:12:56.594Z,985.79
2018-04-10T00:14:00.854Z,985.82
2018-04-10T00:15:06.223Z,985.81
2018-04-10T00:16:11.589Z,985.81
2018-04-10T00:17:15.948Z,985.84
2018-04-10T00:18:20.306Z,985.82
2018-04-10T00:19:25.563Z,985.79
2018-04-10T00:20:30.933Z,985.88
2018-04-10T00:21:35.204Z,985.79
2018-04-10T00:22:39.469Z,985.87
2018-04-10T00:23:44.734Z,985.79
2018-04-10T00:24:50.102Z,985.88
2018-04-10T00:25:54.470Z,985.85
2018-04-10T00:26:59.639Z,985.85
2018-04-10T00:28:04.893Z,985.87
2018-04-10T00:29:10.258Z,985.82
2018-04-10T00:30:14.527Z,985.84
2018-04-10T00:31:18.686Z,985.87
2018-04-10T00:32:22.948Z,985.9
2018-04-10T00:33:28.303Z,985.87
2018-04-10T15:28:37.168Z,986.35
2018-04-10T15:29:42.482Z,986.36
2018-04-10T15:30:46.797Z,986.48
2018-04-10T15:31:51.157Z,986.44
2018-04-10T15:32:56.421Z,986.46
2018-04-10T15:34:01.679Z,986.44
2018-04-10T15:35:06.943Z,986.38
2018-04-10T15:36:11.104Z,986.39
2018-04-10T15:37:15.409Z,986.37
2018-04-10T15:38:20.684Z,986.44
2018-04-10T15:39:26.056Z,986.41
2018-04-10T15:40:30.324Z,986.39
2018-04-10T15:41:34.582Z,986.34
2018-04-10T15:42:38.937Z,986.32
2018-04-10T15:43:44.193Z,986.29
2018-04-10T15:44:49.461Z,986.39
2018-04-10T15:45:53.721Z,986.35
2018-04-10T15:46:58.025Z,986.38
2018-04-10T15:48:03.239Z,986.33
2018-04-10T15:49:08.511Z,986.45
2018-04-10T15:50:13.768Z,986.33
2018-04-10T15:51:17.926Z,986.34
2018-04-10T15:52:22.284Z,986.31
2018-04-10T15:53:27.649Z,986.32
2018-04-10T15:54:33.124Z,986.34
2018-04-10T15:55:37.289Z,986.3
2018-04-10T15:56:42.647Z,986.32
2018-04-10T15:57:48.003Z,986.33
2018-04-10T15:58:52.268Z,986.32
2018-04-10T15:59:56.541Z,986.32
2018-04-10T16:01:01.816Z,986.34
2018-04-10T16:02:07.079Z,986.28
2018-04-10T16:03:12.235Z,986.37
2018-04-10T16:04:16.511Z,986.39
2018-04-10T16:05:20.873Z,986.44
2018-04-10T16:06:26.238Z,986.43
2018-04-10T16:07:31.502Z,986.38
2018-04-10T16:08:35.866Z,986.34
2018-04-10T16:09:43.159Z,986.32
2018-04-10T16:10:48.329Z,986.41
2018-04-10T16:11:53.686Z,986.39
2018-04-10T16:12:57.947Z,986.45
2018-04-10T16:14:02.213Z,986.37
2018-04-10T16:15:07.486Z,986.44
2018-04-10T16:16:12.744Z,986.32
2018-04-10T16:17:18.001Z,986.41
2018-04-10T16:18:22.264Z,986.33
2018-04-10T16:19:26.637Z,986.3
2018-04-10T16:20:31.998Z,986.41
2018-04-10T16:21:37.257Z,986.36
2018-04-10T16:22:41.515Z,986.33
2018-04-10T16:23:45.782Z,986.32
2018-04-10T16:24:51.051Z,986.3
2018-04-10T16:25:56.414Z,986.33
2018-04-10T16:27:00.577Z,986.31
2018-04-10T16:28:04.837Z,986.33
2018-04-10T16:29:13.209Z,986.27
2018-04-10T16:30:18.576Z,986.24
2018-04-10T16:31:23.744Z,986.24
2018-04-10T16:32:29.008Z,986.33
2018-04-10T16:33:33.366Z,986.27
2018-04-10T16:34:38.729Z,986.28
2018-04-10T16:35:43.984Z,986.27
2018-04-10T16:36:49.241Z,986.27
2018-04-10T16:37:53.608Z,986.33
2018-04-10T16:38:57.871Z,986.22
2018-04-10T16:40:03.161Z,986.3
2018-04-10T16:41:08.521Z,986.34
2018-04-10T16:42:12.785Z,986.27
2018-04-10T16:43:17.056Z,986.29
2018-04-10T16:44:22.321Z,986.27
2018-04-10T16:45:27.579Z,986.34
2018-04-10T16:46:31.939Z,986.25
2018-04-10T16:47:36.296Z,986.31
2018-04-10T16:48:41.561Z,986.31
2018-04-10T16:49:46.932Z,986.27
2018-04-10T16:50:51.294Z,986.24
2018-04-10T16:51:55.556Z,986.34
2018-04-10T16:53:00.820Z,986.28
2018-04-10T16:54:06.084Z,986.25
2018-04-10T16:55:10.247Z,986.26
2018-04-10T16:56:14.608Z,986.46
2018-04-10T16:57:19.864Z,986.26
2018-04-10T16:58:25.123Z,986.25
2018-04-10T16:59:30.292Z,986.2
2018-04-10T17:00:34.646Z,986.32
2018-04-10T17:01:38.900Z,986.23
2018-04-10T17:02:44.265Z,986.28
2018-04-10T17:03:49.520Z,986.26
2018-04-10T17:04:53.923Z,986.23
2018-04-10T17:05:58.090Z,986.25
2018-04-10T17:07:03.356Z,986.2
2018-04-10T17:08:08.621Z,986.28
2018-04-10T17:09:14.790Z,986.25
2018-04-10T17:10:20.054Z,986.26
2018-04-10T17:11:24.311Z,986.28
2018-04-10T17:12:28.624Z,986.33
2018-04-10T17:13:33.987Z,986.23
2018-04-10T17:14:39.260Z,986.26
2018-04-10T17:15:43.621Z,986.26
2018-04-10T17:16:47.975Z,986.2
2018-04-10T17:17:53.249Z,986.27
2018-04-10T17:18:58.513Z,986.25
2018-04-10T17:20:02.885Z,986.27
2018-04-10T17:21:08.151Z,986.29
2018-04-10T17:22:13.406Z,986.23
2018-04-10T17:23:18.662Z,986.32
2018-04-10T17:24:22.928Z,986.32
2018-04-10T17:25:27.189Z,986.32
2018-04-10T17:26:32.450Z,986.29
2018-04-10T17:27:37.813Z,986.29
2018-04-10T17:28:42.183Z,986.33
2018-04-10T17:29:50.450Z,986.32
2018-04-10T17:30:54.741Z,986.5
2018-04-10T17:32:00.104Z,986.45
2018-04-10T17:33:05.465Z,986.42
2018-04-10T17:34:09.731Z,986.54
2018-04-10T17:35:17.093Z,986.48
2018-04-10T17:36:25.455Z,986.47
2018-04-10T17:37:30.718Z,986.41
2018-04-10T17:38:34.980Z,986.45
2018-04-10T17:39:39.253Z,986.41
2018-04-10T17:40:44.524Z,986.42
2018-04-10T17:41:49.789Z,986.38
2018-04-10T17:42:55.057Z,986.35
2018-04-10T17:43:59.318Z,986.35
2018-04-10T17:45:03.685Z,986.29
2018-04-10T17:46:08.948Z,986.18
2018-04-10T17:47:14.112Z,986.29
2018-04-10T17:48:18.367Z,986.27
2018-04-10T17:49:22.631Z,986.36
2018-04-10T17:50:26.890Z,986.41
2018-04-10T17:51:32.253Z,986.44
2018-04-10T17:52:37.519Z,986.47
2018-04-10T17:53:41.880Z,986.47
2018-04-10T17:54:47.255Z,986.5
2018-04-10T17:55:52.518Z,986.5
2018-04-10T17:56:57.777Z,986.47
2018-04-10T17:58:02.136Z,986.47
2018-04-10T17:59:07.304Z,986.56
2018-04-10T18:00:12.669Z,986.56
2018-04-10T18:01:17.926Z,986.48
2018-04-10T18:02:22.092Z,986.49
2018-04-10T18:03:26.350Z,986.35
2018-04-10T18:04:30.711Z,986.48
2018-04-10T18:05:36.075Z,986.42
2018-04-10T18:06:40.436Z,986.33
2018-04-10T18:07:44.696Z,986.44
2018-04-10T18:08:49.953Z,986.39
2018-04-10T18:09:55.324Z,986.44
2018-04-10T18:10:59.584Z,986.56
2018-04-10T18:12:03.841Z,986.45
2018-04-10T18:13:09.095Z,986.46
2018-04-10T18:14:14.363Z,986.42
2018-04-10T18:15:19.632Z,986.52
2018-04-10T18:16:23.888Z,986.45
2018-04-10T18:17:28.144Z,986.42
2018-04-10T18:18:33.443Z,986.4
2018-04-10T18:19:38.725Z,986.49
2018-04-10T18:20:43.083Z,986.54
2018-04-10T18:21:47.244Z,986.42
2018-04-10T18:22:51.604Z,986.45
2018-04-10T18:23:56.893Z,986.49
2018-04-10T18:25:01.166Z,986.48
2018-04-10T18:26:05.522Z,986.43
2018-04-10T18:27:10.791Z,986.37
2018-04-10T18:28:16.057Z,986.36
2018-04-10T18:29:21.325Z,986.39
2018-04-10T18:30:29.686Z,986.37
2018-04-10T18:31:33.947Z,986.28
2018-04-10T18:32:39.343Z,986.24
2018-04-10T18:33:44.601Z,986.21
2018-04-10T18:34:48.874Z,986.14
2018-04-10T18:35:53.132Z,986.15
2018-04-10T18:37:00.294Z,986.1
2018-04-10T18:38:05.652Z,986.13
2018-04-10T18:39:11.025Z,986.15
2018-04-10T18:40:15.290Z,986.13
2018-04-10T18:41:19.547Z,986.12
2018-04-10T18:42:24.907Z,986.16
2018-04-10T18:43:33.162Z,986.27
2018-04-10T18:44:38.527Z,986.27
2018-04-10T18:45:42.788Z,986.3
2018-04-10T18:46:48.197Z,986.4
2018-04-10T18:47:53.461Z,986.36
2018-04-10T18:48:57.815Z,986.39
2018-04-10T18:50:02.179Z,986.4
2018-04-10T18:51:07.541Z,986.3
2018-04-10T18:52:12.806Z,986.39
2018-04-10T18:53:17.167Z,986.39
2018-04-10T18:54:22.537Z,986.25
2018-04-10T18:55:27.896Z,986.37
2018-04-10T18:56:32.154Z,986.3
2018-04-10T18:57:36.416Z,986.33
2018-04-10T18:58:41.673Z,986.34
2018-04-10T18:59:47.055Z,986.3
2018-04-10T19:00:51.320Z,986.33
2018-04-10T19:01:55.686Z,986.27
2018-04-10T19:03:00.946Z,986.27
2018-04-10T19:04:06.313Z,986.52
2018-04-10T19:05:10.580Z,986.6
2018-04-10T19:06:14.841Z,987.06
2018-04-10T19:07:20.103Z,987.16
2018-04-10T19:08:25.460Z,987.12
2018-04-10T19:09:29.726Z,987.01
2018-04-10T19:10:33.982Z,986.98
2018-04-10T19:11:41.244Z,986.91
2018-04-10T19:12:46.406Z,986.94
2018-04-10T19:13:51.670Z,986.97
2018-04-10T19:14:57.041Z,986.92
2018-04-10T19:16:01.302Z,986.88
2018-04-10T19:17:06.619Z,986.83
2018-04-10T19:18:11.778Z,986.76
2018-04-10T19:19:17.044Z,986.69
2018-04-10T19:20:21.315Z,986.6
2018-04-10T19:21:25.588Z,986.52
2018-04-10T19:22:30.948Z,986.49
2018-04-10T19:23:36.107Z,986.38
2018-04-10T19:24:41.382Z,986.34
2018-04-10T19:25:45.649Z,986.31
2018-04-10T19:26:50.008Z,986.26
2018-04-10T19:27:55.269Z,986.43
2018-04-10T19:29:00.531Z,986.63
2018-04-10T19:30:04.795Z,987.01
2018-04-10T19:31:13.165Z,987.65
2018-04-10T19:32:17.527Z,988.04
2018-04-10T19:33:22.886Z,988.1
2018-04-10T19:34:27.257Z,988.15
2018-04-10T19:35:31.520Z,987.81
2018-04-10T19:36:36.877Z,988.1
2018-04-10T19:37:42.232Z,988.33
2018-04-10T19:38:46.486Z,988.38
2018-04-10T19:39:53.774Z,988.42
2018-04-10T19:40:59.038Z,988.31
2018-04-10T19:42:04.296Z,988.25
2018-04-10T19:43:09.565Z,988.28
2018-04-10T19:44:13.934Z,988.21
2018-04-10T19:45:18.298Z,988.15
2018-04-10T19:46:23.558Z,988.22
2018-04-10T19:47:28.824Z,988.33
2018-04-10T19:48:32.995Z,988.36
2018-04-10T19:49:37.286Z,988.39
2018-04-10T19:50:42.548Z,988.37
2018-04-10T19:51:47.813Z,988.27
2018-04-10T19:52:53.206Z,988.27
2018-04-10T19:53:57.476Z,988.25
2018-04-10T19:55:02.737Z,988.22
2018-04-10T19:56:08.000Z,988.04
2018-04-10T19:57:13.360Z,988.07
2018-04-10T19:58:17.723Z,988.07
2018-04-10T19:59:22.993Z,988.12
2018-04-10T20:00:28.357Z,988.2
2018-04-10T20:01:32.624Z,988.06
2018-04-10T20:02:36.891Z,987.98
2018-04-10T20:03:42.192Z,988.01
2018-04-10T20:04:47.491Z,988.06
2018-04-10T20:05:53.654Z,987.91
2018-04-10T20:06:58.021Z,987.87
2018-04-10T20:08:02.285Z,987.95
2018-04-10T20:09:07.678Z,987.94
2018-04-10T20:10:12.947Z,987.87
2018-04-10T20:11:17.312Z,987.8
2018-04-10T20:12:21.678Z,987.74
2018-04-10T20:13:27.042Z,987.74
2018-04-10T20:14:31.312Z,987.71
2018-04-10T20:15:35.572Z,987.75
2018-04-10T20:16:40.934Z,987.75
2018-04-10T20:17:46.294Z,987.71
2018-04-10T20:18:50.556Z,987.72
2018-04-10T20:19:54.827Z,987.69
2018-04-10T20:21:00.199Z,987.68
2018-04-10T20:22:05.565Z,987.62
2018-04-10T20:23:09.837Z,987.56
2018-04-10T20:24:14.103Z,987.49
2018-04-10T20:25:19.260Z,987.52
2018-04-10T20:26:24.617Z,987.52
2018-04-10T20:27:29.985Z,987.6
2018-04-10T20:28:34.251Z,987.56
2018-04-10T20:29:39.618Z,987.58
2018-04-10T20:30:44.982Z,987.55
2018-04-10T20:31:52.327Z,987.59
2018-04-10T20:32:56.792Z,987.71
2018-04-10T20:34:02.151Z,987.62
2018-04-10T20:35:07.627Z,987.69
2018-04-10T20:36:11.988Z,987.66
2018-04-10T20:37:17.253Z,987.65
2018-04-10T20:38:22.519Z,987.56
2018-04-10T20:39:26.985Z,987.61
2018-04-10T20:40:31.351Z,987.66
2018-04-10T20:41:36.611Z,987.75
2018-04-10T20:42:41.869Z,987.84
2018-04-10T20:43:46.139Z,987.87
2018-04-10T20:44:50.549Z,987.95
2018-04-10T20:45:55.715Z,988
2018-04-10T20:47:00.879Z,988.01
2018-04-10T20:48:06.141Z,988.27
2018-04-10T20:49:10.412Z,988.39
2018-04-10T20:50:14.669Z,988.52
2018-04-10T20:51:19.827Z,988.49
2018-04-10T20:52:25.089Z,988.51
2018-04-10T20:53:30.348Z,988.49
2018-04-10T20:54:34.715Z,988.66
2018-04-10T20:55:39.076Z,988.7
2018-04-10T20:56:44.332Z,988.69
2018-04-10T20:57:50.651Z,988.85
2018-04-10T20:59:16.423Z,988.82
2018-04-10T21:00:20.678Z,988.83
2018-04-10T21:01:26.041Z,988.82
2018-04-10T21:02:31.402Z,988.82
2018-04-10T21:03:35.767Z,988.88
2018-04-10T21:04:40.033Z,988.72
2018-04-10T21:05:45.298Z,988.6
2018-04-10T21:06:50.557Z,988.46
2018-04-10T21:07:54.816Z,988.36
2018-04-10T21:08:59.183Z,988.25
2018-04-10T21:10:04.456Z,988.06
2018-04-10T21:11:09.723Z,988.04
2018-04-10T21:12:14.088Z,988.03
2018-04-10T21:13:18.548Z,988.01
2018-04-10T21:14:23.911Z,987.86
2018-04-10T21:15:28.266Z,987.87
2018-04-10T21:16:32.523Z,988.04
2018-04-10T21:17:37.811Z,987.92
2018-04-10T21:18:43.273Z,987.86
2018-04-10T21:19:47.647Z,987.86
2018-04-10T21:20:52.946Z,987.95
2018-04-10T21:21:58.309Z,987.86
2018-04-10T21:23:02.672Z,988.03
2018-04-10T21:24:07.033Z,988.15
2018-04-10T21:25:12.505Z,988.29
2018-04-10T21:26:16.865Z,988.22
2018-04-10T21:27:21.236Z,988.25
2018-04-10T21:28:26.529Z,988.36
2018-04-10T21:29:30.880Z,988.16
2018-04-10T21:30:35.349Z,988.21
2018-04-10T21:31:40.821Z,988.11
2018-04-10T21:32:45.289Z,988.15
2018-04-10T21:33:50.674Z,988.26
2018-04-10T21:34:55.941Z,988.26
2018-04-10T21:36:00.200Z,988.32
2018-04-10T21:37:04.369Z,988.25
2018-04-10T21:38:09.638Z,988.35
2018-04-10T21:39:14.808Z,988.42
2018-04-10T21:40:20.075Z,988.39
2018-04-10T21:41:24.436Z,988.39
2018-04-10T21:42:28.700Z,988.33
2018-04-10T21:43:34.068Z,988.36
2018-04-10T21:44:39.446Z,988.4
2018-04-10T21:45:43.721Z,988.41
2018-04-10T21:46:47.978Z,988.34
2018-04-10T21:47:53.245Z,988.38
2018-04-10T21:48:58.606Z,988.43
2018-04-10T21:50:02.971Z,988.38
2018-04-10T21:51:07.235Z,988.31
2018-04-10T21:52:12.496Z,988.37
2018-04-10T21:53:17.760Z,988.4
2018-04-10T21:54:22.130Z,988.32
2018-04-10T21:55:26.392Z,988.31
2018-04-10T21:56:31.748Z,988.41
2018-04-10T21:57:37.014Z,988.37
2018-04-10T21:58:41.287Z,988.34
2018-04-10T21:59:49.570Z,988.4
2018-04-10T22:00:53.843Z,988.53
2018-04-10T22:01:59.357Z,988.56
2018-04-10T22:03:03.525Z,988.53
2018-04-10T22:04:07.791Z,988.53
2018-04-10T22:05:11.968Z,988.55
2018-04-10T22:06:17.231Z,988.52
2018-04-10T22:07:22.591Z,988.46
2018-04-10T22:08:26.953Z,988.53
2018-04-10T22:09:31.385Z,988.53
2018-04-10T22:10:36.753Z,988.47
2018-04-10T22:11:41.021Z,988.46
2018-04-10T22:12:45.378Z,988.55
2018-04-10T22:13:50.665Z,988.58
2018-04-10T22:14:55.937Z,988.55
2018-04-10T22:16:00.197Z,988.55
2018-04-10T22:17:04.559Z,988.65
2018-04-10T22:18:09.920Z,988.68
2018-04-10T22:19:15.183Z,988.68
2018-04-10T22:20:19.449Z,988.7
2018-04-10T22:21:23.713Z,988.82
2018-04-10T22:22:29.076Z,988.7
2018-04-10T22:23:34.440Z,988.77
2018-04-10T22:24:38.707Z,988.68
2018-04-10T22:25:43.073Z,988.68
2018-04-10T22:26:48.336Z,988.76
2018-04-10T22:27:53.596Z,988.71
2018-04-10T22:28:57.862Z,988.76
2018-04-10T22:30:02.127Z,988.83
2018-04-10T22:31:09.490Z,988.98
2018-04-10T22:32:14.747Z,989
2018-04-10T22:33:19.995Z,989.03
2018-04-10T22:34:24.276Z,989
2018-04-10T22:35:28.539Z,988.89
2018-04-10T22:36:33.908Z,989.1
2018-04-10T22:37:39.267Z,989
2018-04-10T22:38:43.438Z,989.09
2018-04-10T22:39:47.706Z,989.09
2018-04-10T22:40:52.980Z,989.06
2018-04-10T22:41:58.143Z,989.03
2018-04-10T22:43:03.504Z,988.98
2018-04-10T22:44:07.883Z,989.12
2018-04-10T22:45:13.358Z,989.18
2018-04-10T22:46:18.724Z,989.13
2018-04-10T22:47:23.182Z,989.18
2018-04-10T22:48:28.643Z,989.15
2018-04-10T22:49:32.990Z,989.15
2018-04-10T22:50:37.355Z,989.1
2018-04-10T22:51:42.695Z,989.16
2018-04-10T22:52:48.080Z,989.1
2018-04-10T22:53:52.347Z,989.18
2018-04-10T22:54:56.623Z,989.12
2018-04-10T22:56:01.882Z,989.12
2018-04-10T22:57:07.250Z,989.09
2018-04-10T22:58:11.517Z,989.04
2018-04-10T22:59:15.795Z,989.15
2018-04-10T23:00:23.964Z,989.15
2018-04-10T23:01:29.230Z,989.15
2018-04-10T23:02:34.499Z,989.15
2018-04-10T23:03:39.759Z,989.07
2018-04-10T23:04:44.126Z,989.16
2018-04-10T23:05:49.488Z,989.15
2018-04-10T23:06:54.853Z,989.21
2018-04-10T23:07:59.115Z,989.21
2018-04-10T23:09:06.478Z,989.14
2018-04-10T23:10:11.747Z,989.11
2018-04-10T23:11:17.011Z,989.15
2018-04-10T23:12:22.372Z,989.19
2018-04-10T23:13:26.735Z,989.13
2018-04-10T23:14:32.005Z,989.19
2018-04-10T23:15:37.268Z,989.13
2018-04-10T23:16:42.660Z,989.12
2018-04-10T23:17:47.026Z,989.19
2018-04-10T23:18:52.289Z,989.18
2018-04-10T23:19:57.559Z,989.17
2018-04-10T23:21:01.767Z,989.31
2018-04-10T23:22:09.033Z,989.3
2018-04-10T23:23:13.300Z,989.31
2018-04-10T23:24:18.672Z,989.33
2018-04-10T23:25:23.937Z,989.28
2018-04-10T23:26:28.309Z,989.36
2018-04-10T23:27:32.569Z,989.36
2018-04-10T23:28:37.833Z,989.36
2018-04-10T23:29:43.199Z,989.4
2018-04-10T23:30:47.562Z,989.37
2018-04-10T23:31:52.729Z,989.37
2018-04-10T23:32:57.999Z,989.4
2018-04-10T23:34:03.169Z,989.42
2018-04-10T23:35:08.337Z,989.42
2018-04-10T23:36:12.596Z,989.4
2018-04-10T23:37:19.857Z,989.42
2018-04-10T23:38:24.114Z,989.39
2018-04-10T23:39:29.381Z,989.35
2018-04-10T23:40:34.640Z,989.31
2018-04-10T23:41:38.804Z,989.34
2018-04-10T23:42:43.077Z,989.45
2018-04-10T23:43:47.332Z,989.49
2018-04-10T23:44:52.703Z,989.48
2018-04-10T23:45:57.966Z,989.42
2018-04-10T23:47:02.325Z,989.43
2018-04-10T23:48:06.586Z,989.4
2018-04-10T23:49:11.948Z,989.45
2018-04-10T23:50:17.244Z,989.43
2018-04-10T23:51:21.513Z,989.49
2018-04-10T23:52:25.879Z,989.43
2018-04-10T23:53:31.237Z,989.43
2018-04-10T23:54:36.612Z,989.42
2018-04-10T23:55:41.038Z,989.36
2018-04-10T23:56:46.238Z,989.42
2018-04-10T23:57:51.595Z,989.36
2018-04-10T23:58:55.953Z,989.33
